sensor_id;sensor_type;location;lat;lon;timestamp;P1;durP1;ratioP1;P2;durP2;ratioP2
32455;SDS011;18912;43.270;27.942;2024-03-07T00:02:04;49.25;;;19.25;;
32455;SDS011;18912;43.270;27.942;2024-03-07T00:04:31;51.13;;;22.00;;
32455;SDS011;18912;43.270;27.942;2024-03-07T00:06:57;59.60;;;20.47;;
32455;SDS011;18912;43.270;27.942;2024-03-07T00:09:23;51.33;;;20.50;;
32455;SDS011;18912;43.270;27.942;2024-03-07T00:11:51;45.95;;;19.45;;
32455;SDS011;18912;43.270;27.942;2024-03-07T00:14:17;54.13;;;20.77;;
32455;SDS011;18912;43.270;27.942;2024-03-07T00:16:42;41.20;;;18.50;;
32455;SDS011;18912;43.270;27.942;2024-03-07T00:19:08;50.57;;;17.40;;
32455;SDS011;18912;43.270;27.942;2024-03-07T00:21:33;52.13;;;21.05;;
32455;SDS011;18912;43.270;27.942;2024-03-07T00:23:59;44.23;;;18.97;;
32455;SDS011;18912;43.270;27.942;2024-03-07T00:26:25;49.78;;;21.63;;
32455;SDS011;18912;43.270;27.942;2024-03-07T00:28:51;41.67;;;19.60;;
32455;SDS011;18912;43.270;27.942;2024-03-07T00:31:17;40.63;;;19.67;;
32455;SDS011;18912;43.270;27.942;2024-03-07T00:33:42;45.53;;;18.90;;
32455;SDS011;18912;43.270;27.942;2024-03-07T00:36:08;43.30;;;19.73;;
32455;SDS011;18912;43.270;27.942;2024-03-07T00:38:33;52.27;;;20.47;;
32455;SDS011;18912;43.270;27.942;2024-03-07T00:40:59;43.90;;;20.52;;
32455;SDS011;18912;43.270;27.942;2024-03-07T00:43:25;51.70;;;22.58;;
32455;SDS011;18912;43.270;27.942;2024-03-07T00:45:51;46.95;;;20.15;;
32455;SDS011;18912;43.270;27.942;2024-03-07T00:48:17;69.40;;;32.90;;
32455;SDS011;18912;43.270;27.942;2024-03-07T00:50:42;60.10;;;25.92;;
32455;SDS011;18912;43.270;27.942;2024-03-07T00:53:08;65.07;;;32.00;;
32455;SDS011;18912;43.270;27.942;2024-03-07T00:55:34;112.15;;;50.65;;
32455;SDS011;18912;43.270;27.942;2024-03-07T00:58:00;95.57;;;41.77;;
32455;SDS011;18912;43.270;27.942;2024-03-07T01:00:26;49.10;;;23.17;;
32455;SDS011;18912;43.270;27.942;2024-03-07T01:02:53;50.45;;;22.17;;
32455;SDS011;18912;43.270;27.942;2024-03-07T01:05:19;49.17;;;23.23;;
32455;SDS011;18912;43.270;27.942;2024-03-07T01:07:45;65.50;;;23.98;;
32455;SDS011;18912;43.270;27.942;2024-03-07T01:10:14;59.83;;;23.48;;
32455;SDS011;18912;43.270;27.942;2024-03-07T01:12:40;56.13;;;24.02;;
32455;SDS011;18912;43.270;27.942;2024-03-07T01:15:05;49.00;;;22.20;;
32455;SDS011;18912;43.270;27.942;2024-03-07T01:19:57;53.28;;;21.25;;
32455;SDS011;18912;43.270;27.942;2024-03-07T01:22:23;58.58;;;22.60;;
32455;SDS011;18912;43.270;27.942;2024-03-07T01:24:49;63.30;;;22.83;;
32455;SDS011;18912;43.270;27.942;2024-03-07T01:29:41;52.13;;;20.35;;
32455;SDS011;18912;43.270;27.942;2024-03-07T01:32:09;58.50;;;22.13;;
32455;SDS011;18912;43.270;27.942;2024-03-07T01:34:35;46.92;;;19.95;;
32455;SDS011;18912;43.270;27.942;2024-03-07T01:37:01;52.67;;;22.35;;
32455;SDS011;18912;43.270;27.942;2024-03-07T01:39:27;65.50;;;21.93;;
32455;SDS011;18912;43.270;27.942;2024-03-07T01:41:52;53.50;;;21.40;;
32455;SDS011;18912;43.270;27.942;2024-03-07T01:44:18;49.25;;;20.75;;
32455;SDS011;18912;43.270;27.942;2024-03-07T01:46:43;44.20;;;21.40;;
32455;SDS011;18912;43.270;27.942;2024-03-07T01:49:09;41.10;;;20.50;;
32455;SDS011;18912;43.270;27.942;2024-03-07T01:51:36;51.60;;;21.90;;
32455;SDS011;18912;43.270;27.942;2024-03-07T01:54:03;50.40;;;21.08;;
32455;SDS011;18912;43.270;27.942;2024-03-07T01:58:55;55.25;;;20.88;;
32455;SDS011;18912;43.270;27.942;2024-03-07T02:01:22;57.90;;;21.13;;
32455;SDS011;18912;43.270;27.942;2024-03-07T02:06:13;58.85;;;21.92;;
32455;SDS011;18912;43.270;27.942;2024-03-07T02:08:39;47.00;;;20.05;;
32455;SDS011;18912;43.270;27.942;2024-03-07T02:11:05;52.83;;;19.97;;
32455;SDS011;18912;43.270;27.942;2024-03-07T02:13:30;43.80;;;19.30;;
32455;SDS011;18912;43.270;27.942;2024-03-07T02:15:56;49.22;;;19.98;;
32455;SDS011;18912;43.270;27.942;2024-03-07T02:18:22;58.28;;;20.50;;
32455;SDS011;18912;43.270;27.942;2024-03-07T02:20:48;46.28;;;20.60;;
32455;SDS011;18912;43.270;27.942;2024-03-07T02:23:14;47.17;;;21.25;;
32455;SDS011;18912;43.270;27.942;2024-03-07T02:25:40;46.43;;;20.50;;
32455;SDS011;18912;43.270;27.942;2024-03-07T02:28:06;47.78;;;19.73;;
32455;SDS011;18912;43.270;27.942;2024-03-07T02:33:00;45.00;;;19.25;;
32455;SDS011;18912;43.270;27.942;2024-03-07T02:35:35;52.15;;;20.08;;
32455;SDS011;18912;43.270;27.942;2024-03-07T02:38:02;50.30;;;20.73;;
32455;SDS011;18912;43.270;27.942;2024-03-07T02:40:28;53.03;;;22.25;;
32455;SDS011;18912;43.270;27.942;2024-03-07T02:42:54;46.95;;;21.27;;
32455;SDS011;18912;43.270;27.942;2024-03-07T02:45:19;51.83;;;21.83;;
32455;SDS011;18912;43.270;27.942;2024-03-07T02:47:46;55.38;;;21.30;;
32455;SDS011;18912;43.270;27.942;2024-03-07T02:50:11;49.97;;;20.17;;
32455;SDS011;18912;43.270;27.942;2024-03-07T02:52:37;50.40;;;20.37;;
32455;SDS011;18912;43.270;27.942;2024-03-07T02:55:04;52.72;;;22.10;;
32455;SDS011;18912;43.270;27.942;2024-03-07T02:57:30;54.05;;;20.20;;
32455;SDS011;18912;43.270;27.942;2024-03-07T02:59:56;60.60;;;22.00;;
32455;SDS011;18912;43.270;27.942;2024-03-07T03:02:22;56.00;;;20.53;;
32455;SDS011;18912;43.270;27.942;2024-03-07T03:04:48;54.15;;;19.75;;
32455;SDS011;18912;43.270;27.942;2024-03-07T03:07:13;50.10;;;19.30;;
32455;SDS011;18912;43.270;27.942;2024-03-07T03:09:39;60.85;;;23.30;;
32455;SDS011;18912;43.270;27.942;2024-03-07T03:12:08;56.17;;;20.73;;
32455;SDS011;18912;43.270;27.942;2024-03-07T03:14:34;45.38;;;19.73;;
32455;SDS011;18912;43.270;27.942;2024-03-07T03:17:00;48.97;;;20.10;;
32455;SDS011;18912;43.270;27.942;2024-03-07T03:19:25;64.65;;;24.80;;
32455;SDS011;18912;43.270;27.942;2024-03-07T03:21:51;61.80;;;25.63;;
32455;SDS011;18912;43.270;27.942;2024-03-07T03:24:17;78.15;;;28.27;;
32455;SDS011;18912;43.270;27.942;2024-03-07T03:26:43;81.35;;;32.83;;
32455;SDS011;18912;43.270;27.942;2024-03-07T03:29:09;103.97;;;41.10;;
32455;SDS011;18912;43.270;27.942;2024-03-07T03:31:36;96.85;;;34.83;;
32455;SDS011;18912;43.270;27.942;2024-03-07T03:34:02;68.53;;;29.65;;
32455;SDS011;18912;43.270;27.942;2024-03-07T03:36:28;80.68;;;32.30;;
32455;SDS011;18912;43.270;27.942;2024-03-07T03:38:54;52.90;;;23.83;;
32455;SDS011;18912;43.270;27.942;2024-03-07T03:41:20;65.68;;;27.30;;
32455;SDS011;18912;43.270;27.942;2024-03-07T03:43:45;72.30;;;30.77;;
32455;SDS011;18912;43.270;27.942;2024-03-07T03:46:12;60.45;;;25.20;;
32455;SDS011;18912;43.270;27.942;2024-03-07T03:48:41;68.03;;;27.00;;
32455;SDS011;18912;43.270;27.942;2024-03-07T03:51:07;62.22;;;26.67;;
32455;SDS011;18912;43.270;27.942;2024-03-07T03:53:33;72.82;;;28.50;;
32455;SDS011;18912;43.270;27.942;2024-03-07T03:55:59;70.43;;;27.92;;
32455;SDS011;18912;43.270;27.942;2024-03-07T03:58:25;73.27;;;29.53;;
32455;SDS011;18912;43.270;27.942;2024-03-07T04:00:51;65.45;;;27.67;;
32455;SDS011;18912;43.270;27.942;2024-03-07T04:03:16;66.05;;;26.50;;
32455;SDS011;18912;43.270;27.942;2024-03-07T04:05:42;63.10;;;24.33;;
32455;SDS011;18912;43.270;27.942;2024-03-07T04:08:08;57.65;;;25.73;;
32455;SDS011;18912;43.270;27.942;2024-03-07T04:13:00;58.47;;;23.10;;
32455;SDS011;18912;43.270;27.942;2024-03-07T04:15:25;54.87;;;22.27;;
32455;SDS011;18912;43.270;27.942;2024-03-07T04:17:52;85.60;;;31.23;;
32455;SDS011;18912;43.270;27.942;2024-03-07T04:20:18;58.47;;;26.15;;
32455;SDS011;18912;43.270;27.942;2024-03-07T04:22:43;58.10;;;24.80;;
32455;SDS011;18912;43.270;27.942;2024-03-07T04:25:09;53.75;;;21.48;;
32455;SDS011;18912;43.270;27.942;2024-03-07T04:27:35;61.30;;;23.57;;
32455;SDS011;18912;43.270;27.942;2024-03-07T04:30:05;47.75;;;20.40;;
32455;SDS011;18912;43.270;27.942;2024-03-07T04:32:32;51.78;;;18.98;;
32455;SDS011;18912;43.270;27.942;2024-03-07T04:34:59;51.63;;;18.98;;
32455;SDS011;18912;43.270;27.942;2024-03-07T04:37:25;58.22;;;21.55;;
32455;SDS011;18912;43.270;27.942;2024-03-07T04:39:54;43.40;;;19.58;;
32455;SDS011;18912;43.270;27.942;2024-03-07T04:42:20;62.80;;;24.23;;
32455;SDS011;18912;43.270;27.942;2024-03-07T04:44:46;50.47;;;22.03;;
32455;SDS011;18912;43.270;27.942;2024-03-07T04:47:11;51.23;;;21.73;;
32455;SDS011;18912;43.270;27.942;2024-03-07T04:49:37;53.93;;;22.63;;
32455;SDS011;18912;43.270;27.942;2024-03-07T04:52:03;58.97;;;22.53;;
32455;SDS011;18912;43.270;27.942;2024-03-07T04:54:30;48.03;;;21.75;;
32455;SDS011;18912;43.270;27.942;2024-03-07T04:56:57;55.85;;;22.23;;
32455;SDS011;18912;43.270;27.942;2024-03-07T04:59:22;56.05;;;21.90;;
32455;SDS011;18912;43.270;27.942;2024-03-07T05:01:49;53.30;;;22.25;;
32455;SDS011;18912;43.270;27.942;2024-03-07T05:06:41;45.78;;;20.33;;
32455;SDS011;18912;43.270;27.942;2024-03-07T05:09:09;52.35;;;21.63;;
32455;SDS011;18912;43.270;27.942;2024-03-07T05:11:46;45.95;;;20.58;;
32455;SDS011;18912;43.270;27.942;2024-03-07T05:14:12;53.57;;;21.13;;
32455;SDS011;18912;43.270;27.942;2024-03-07T05:16:37;43.80;;;20.13;;
32455;SDS011;18912;43.270;27.942;2024-03-07T05:19:03;42.37;;;20.47;;
32455;SDS011;18912;43.270;27.942;2024-03-07T05:21:30;46.20;;;20.52;;
32455;SDS011;18912;43.270;27.942;2024-03-07T05:23:58;46.60;;;19.08;;
32455;SDS011;18912;43.270;27.942;2024-03-07T05:28:51;44.72;;;18.85;;
32455;SDS011;18912;43.270;27.942;2024-03-07T05:31:17;41.08;;;18.70;;
32455;SDS011;18912;43.270;27.942;2024-03-07T05:33:45;38.72;;;18.33;;
32455;SDS011;18912;43.270;27.942;2024-03-07T05:36:10;36.20;;;17.92;;
32455;SDS011;18912;43.270;27.942;2024-03-07T05:38:43;35.53;;;18.45;;
32455;SDS011;18912;43.270;27.942;2024-03-07T05:41:11;37.95;;;17.83;;
32455;SDS011;18912;43.270;27.942;2024-03-07T05:43:40;40.53;;;17.05;;
32455;SDS011;18912;43.270;27.942;2024-03-07T05:46:06;43.65;;;18.65;;
32455;SDS011;18912;43.270;27.942;2024-03-07T05:48:36;37.90;;;18.42;;
32455;SDS011;18912;43.270;27.942;2024-03-07T05:51:02;31.13;;;16.65;;
32455;SDS011;18912;43.270;27.942;2024-03-07T05:53:27;43.20;;;17.52;;
32455;SDS011;18912;43.270;27.942;2024-03-07T05:55:53;34.57;;;17.20;;
32455;SDS011;18912;43.270;27.942;2024-03-07T05:58:19;42.15;;;17.08;;
32455;SDS011;18912;43.270;27.942;2024-03-07T06:00:48;32.33;;;16.80;;
32455;SDS011;18912;43.270;27.942;2024-03-07T06:03:16;39.38;;;17.27;;
32455;SDS011;18912;43.270;27.942;2024-03-07T06:05:48;40.70;;;17.63;;
32455;SDS011;18912;43.270;27.942;2024-03-07T06:08:17;34.42;;;16.85;;
32455;SDS011;18912;43.270;27.942;2024-03-07T06:10:43;40.17;;;16.85;;
32455;SDS011;18912;43.270;27.942;2024-03-07T06:13:14;40.63;;;18.10;;
32455;SDS011;18912;43.270;27.942;2024-03-07T06:15:44;35.70;;;16.67;;
32455;SDS011;18912;43.270;27.942;2024-03-07T06:18:11;32.30;;;16.05;;
32455;SDS011;18912;43.270;27.942;2024-03-07T06:20:39;34.38;;;16.38;;
32455;SDS011;18912;43.270;27.942;2024-03-07T06:23:06;45.75;;;17.52;;
32455;SDS011;18912;43.270;27.942;2024-03-07T06:25:32;33.42;;;15.68;;
32455;SDS011;18912;43.270;27.942;2024-03-07T06:28:16;33.28;;;15.73;;
32455;SDS011;18912;43.270;27.942;2024-03-07T06:30:46;35.85;;;16.55;;
32455;SDS011;18912;43.270;27.942;2024-03-07T06:33:12;31.65;;;16.05;;
32455;SDS011;18912;43.270;27.942;2024-03-07T06:35:39;36.65;;;15.65;;
32455;SDS011;18912;43.270;27.942;2024-03-07T06:38:06;33.28;;;14.93;;
32455;SDS011;18912;43.270;27.942;2024-03-07T06:40:33;40.35;;;16.52;;
32455;SDS011;18912;43.270;27.942;2024-03-07T06:43:01;46.53;;;16.25;;
32455;SDS011;18912;43.270;27.942;2024-03-07T06:45:38;33.63;;;14.93;;
32455;SDS011;18912;43.270;27.942;2024-03-07T06:48:05;39.05;;;15.82;;
32455;SDS011;18912;43.270;27.942;2024-03-07T06:50:34;36.30;;;15.18;;
32455;SDS011;18912;43.270;27.942;2024-03-07T06:55:27;25.08;;;13.75;;
32455;SDS011;18912;43.270;27.942;2024-03-07T06:57:53;34.23;;;14.60;;
32455;SDS011;18912;43.270;27.942;2024-03-07T07:00:19;26.37;;;13.77;;
32455;SDS011;18912;43.270;27.942;2024-03-07T07:02:45;41.90;;;15.07;;
32455;SDS011;18912;43.270;27.942;2024-03-07T07:05:11;32.20;;;13.93;;
32455;SDS011;18912;43.270;27.942;2024-03-07T07:07:38;28.50;;;12.60;;
32455;SDS011;18912;43.270;27.942;2024-03-07T07:10:04;39.03;;;13.90;;
32455;SDS011;18912;43.270;27.942;2024-03-07T07:12:34;30.05;;;11.57;;
32455;SDS011;18912;43.270;27.942;2024-03-07T07:15:00;27.70;;;10.85;;
32455;SDS011;18912;43.270;27.942;2024-03-07T07:17:26;27.60;;;11.67;;
32455;SDS011;18912;43.270;27.942;2024-03-07T07:19:54;30.08;;;11.10;;
32455;SDS011;18912;43.270;27.942;2024-03-07T07:22:21;24.00;;;9.18;;
32455;SDS011;18912;43.270;27.942;2024-03-07T07:24:46;31.00;;;9.10;;
32455;SDS011;18912;43.270;27.942;2024-03-07T07:27:12;29.37;;;9.63;;
32455;SDS011;18912;43.270;27.942;2024-03-07T07:29:37;43.20;;;9.23;;
32455;SDS011;18912;43.270;27.942;2024-03-07T07:32:04;32.33;;;9.60;;
32455;SDS011;18912;43.270;27.942;2024-03-07T07:34:30;30.13;;;9.95;;
32455;SDS011;18912;43.270;27.942;2024-03-07T07:36:55;33.77;;;10.60;;
32455;SDS011;18912;43.270;27.942;2024-03-07T07:39:21;35.85;;;10.07;;
32455;SDS011;18912;43.270;27.942;2024-03-07T07:41:47;27.20;;;8.93;;
32455;SDS011;18912;43.270;27.942;2024-03-07T07:44:13;36.87;;;9.63;;
32455;SDS011;18912;43.270;27.942;2024-03-07T07:46:39;28.37;;;9.03;;
32455;SDS011;18912;43.270;27.942;2024-03-07T07:51:31;28.52;;;9.38;;
32455;SDS011;18912;43.270;27.942;2024-03-07T07:53:56;33.43;;;9.70;;
32455;SDS011;18912;43.270;27.942;2024-03-07T07:56:22;24.13;;;9.53;;
32455;SDS011;18912;43.270;27.942;2024-03-07T07:58:49;25.45;;;9.27;;
32455;SDS011;18912;43.270;27.942;2024-03-07T08:01:15;33.90;;;9.97;;
32455;SDS011;18912;43.270;27.942;2024-03-07T08:03:43;31.35;;;9.23;;
32455;SDS011;18912;43.270;27.942;2024-03-07T08:06:09;35.30;;;10.30;;
32455;SDS011;18912;43.270;27.942;2024-03-07T08:08:35;36.27;;;9.90;;
32455;SDS011;18912;43.270;27.942;2024-03-07T08:11:00;37.43;;;10.10;;
32455;SDS011;18912;43.270;27.942;2024-03-07T08:13:26;24.77;;;9.27;;
32455;SDS011;18912;43.270;27.942;2024-03-07T08:15:52;23.20;;;10.07;;
32455;SDS011;18912;43.270;27.942;2024-03-07T08:18:19;28.27;;;10.52;;
32455;SDS011;18912;43.270;27.942;2024-03-07T08:20:45;30.77;;;9.85;;
32455;SDS011;18912;43.270;27.942;2024-03-07T08:23:11;35.60;;;10.57;;
32455;SDS011;18912;43.270;27.942;2024-03-07T08:25:40;45.78;;;10.68;;
32455;SDS011;18912;43.270;27.942;2024-03-07T08:28:06;30.17;;;10.53;;
32455;SDS011;18912;43.270;27.942;2024-03-07T08:30:32;36.17;;;9.98;;
32455;SDS011;18912;43.270;27.942;2024-03-07T08:32:58;27.03;;;9.17;;
32455;SDS011;18912;43.270;27.942;2024-03-07T08:35:27;26.23;;;10.02;;
32455;SDS011;18912;43.270;27.942;2024-03-07T08:37:54;29.33;;;9.77;;
32455;SDS011;18912;43.270;27.942;2024-03-07T08:40:27;39.78;;;9.65;;
32455;SDS011;18912;43.270;27.942;2024-03-07T08:42:57;28.37;;;9.27;;
32455;SDS011;18912;43.270;27.942;2024-03-07T08:47:50;34.72;;;8.50;;
32455;SDS011;18912;43.270;27.942;2024-03-07T08:50:17;38.88;;;10.32;;
32455;SDS011;18912;43.270;27.942;2024-03-07T08:55:11;31.02;;;10.38;;
32455;SDS011;18912;43.270;27.942;2024-03-07T08:57:39;30.40;;;9.63;;
32455;SDS011;18912;43.270;27.942;2024-03-07T09:00:06;22.08;;;10.00;;
32455;SDS011;18912;43.270;27.942;2024-03-07T09:02:59;21.83;;;9.77;;
32455;SDS011;18912;43.270;27.942;2024-03-07T09:05:28;30.63;;;9.18;;
32455;SDS011;18912;43.270;27.942;2024-03-07T09:07:54;24.15;;;9.77;;
32455;SDS011;18912;43.270;27.942;2024-03-07T09:10:20;30.57;;;11.67;;
32455;SDS011;18912;43.270;27.942;2024-03-07T09:12:46;35.30;;;9.67;;
32455;SDS011;18912;43.270;27.942;2024-03-07T09:15:15;26.30;;;11.25;;
32455;SDS011;18912;43.270;27.942;2024-03-07T09:17:42;24.65;;;10.55;;
32455;SDS011;18912;43.270;27.942;2024-03-07T09:22:40;28.40;;;11.63;;
32455;SDS011;18912;43.270;27.942;2024-03-07T09:25:09;29.27;;;12.93;;
32455;SDS011;18912;43.270;27.942;2024-03-07T09:27:35;27.67;;;12.45;;
32455;SDS011;18912;43.270;27.942;2024-03-07T09:30:06;31.05;;;12.60;;
32455;SDS011;18912;43.270;27.942;2024-03-07T09:32:39;43.50;;;12.82;;
32455;SDS011;18912;43.270;27.942;2024-03-07T09:35:06;34.15;;;13.50;;
32455;SDS011;18912;43.270;27.942;2024-03-07T09:37:32;32.10;;;10.38;;
32455;SDS011;18912;43.270;27.942;2024-03-07T09:39:58;31.27;;;12.33;;
32455;SDS011;18912;43.270;27.942;2024-03-07T09:42:23;40.37;;;13.50;;
32455;SDS011;18912;43.270;27.942;2024-03-07T09:44:51;29.38;;;12.25;;
32455;SDS011;18912;43.270;27.942;2024-03-07T09:47:18;36.60;;;16.08;;
32455;SDS011;18912;43.270;27.942;2024-03-07T09:49:46;30.40;;;14.80;;
32455;SDS011;18912;43.270;27.942;2024-03-07T09:52:12;28.27;;;14.93;;
32455;SDS011;18912;43.270;27.942;2024-03-07T09:54:40;36.03;;;14.65;;
32455;SDS011;18912;43.270;27.942;2024-03-07T09:57:06;25.63;;;15.20;;
32455;SDS011;18912;43.270;27.942;2024-03-07T09:59:34;29.55;;;14.25;;
32455;SDS011;18912;43.270;27.942;2024-03-07T10:02:06;32.05;;;14.40;;
32455;SDS011;18912;43.270;27.942;2024-03-07T10:04:39;35.17;;;16.08;;
32455;SDS011;18912;43.270;27.942;2024-03-07T10:07:16;38.88;;;16.17;;
32455;SDS011;18912;43.270;27.942;2024-03-07T10:09:42;31.20;;;14.90;;
32455;SDS011;18912;43.270;27.942;2024-03-07T10:12:08;34.53;;;15.57;;
32455;SDS011;18912;43.270;27.942;2024-03-07T10:14:56;30.95;;;15.75;;
32455;SDS011;18912;43.270;27.942;2024-03-07T10:17:25;31.77;;;14.85;;
32455;SDS011;18912;43.270;27.942;2024-03-07T10:19:51;24.27;;;13.77;;
32455;SDS011;18912;43.270;27.942;2024-03-07T10:22:18;37.53;;;13.40;;
32455;SDS011;18912;43.270;27.942;2024-03-07T10:24:53;36.30;;;15.25;;
32455;SDS011;18912;43.270;27.942;2024-03-07T10:27:21;33.53;;;14.85;;
32455;SDS011;18912;43.270;27.942;2024-03-07T10:29:47;32.10;;;13.32;;
32455;SDS011;18912;43.270;27.942;2024-03-07T10:32:20;33.97;;;14.73;;
32455;SDS011;18912;43.270;27.942;2024-03-07T10:34:53;29.90;;;14.25;;
32455;SDS011;18912;43.270;27.942;2024-03-07T10:37:20;35.45;;;14.38;;
32455;SDS011;18912;43.270;27.942;2024-03-07T10:39:50;31.00;;;15.55;;
32455;SDS011;18912;43.270;27.942;2024-03-07T10:42:17;46.23;;;16.00;;
32455;SDS011;18912;43.270;27.942;2024-03-07T10:44:44;29.77;;;14.90;;
32455;SDS011;18912;43.270;27.942;2024-03-07T10:47:15;35.15;;;15.02;;
32455;SDS011;18912;43.270;27.942;2024-03-07T10:50:04;41.70;;;15.55;;
32455;SDS011;18912;43.270;27.942;2024-03-07T10:58:14;30.75;;;15.23;;
32455;SDS011;18912;43.270;27.942;2024-03-07T11:00:49;33.38;;;14.80;;
32455;SDS011;18912;43.270;27.942;2024-03-07T11:03:18;32.38;;;14.32;;
32455;SDS011;18912;43.270;27.942;2024-03-07T11:05:45;32.22;;;15.73;;
32455;SDS011;18912;43.270;27.942;2024-03-07T11:08:12;39.42;;;15.35;;
32455;SDS011;18912;43.270;27.942;2024-03-07T11:10:39;36.08;;;15.55;;
32455;SDS011;18912;43.270;27.942;2024-03-07T11:13:08;35.28;;;15.43;;
32455;SDS011;18912;43.270;27.942;2024-03-07T11:15:37;34.38;;;15.30;;
32455;SDS011;18912;43.270;27.942;2024-03-07T11:18:05;35.17;;;15.80;;
32455;SDS011;18912;43.270;27.942;2024-03-07T11:20:36;39.60;;;16.20;;
32455;SDS011;18912;43.270;27.942;2024-03-07T11:26:10;32.90;;;14.88;;
32455;SDS011;18912;43.270;27.942;2024-03-07T11:28:39;38.00;;;14.65;;
32455;SDS011;18912;43.270;27.942;2024-03-07T11:31:13;32.28;;;14.48;;
32455;SDS011;18912;43.270;27.942;2024-03-07T11:33:40;31.50;;;14.73;;
32455;SDS011;18912;43.270;27.942;2024-03-07T11:36:12;41.72;;;15.63;;
32455;SDS011;18912;43.270;27.942;2024-03-07T11:38:44;38.65;;;15.10;;
32455;SDS011;18912;43.270;27.942;2024-03-07T11:41:10;33.30;;;15.18;;
32455;SDS011;18912;43.270;27.942;2024-03-07T11:43:38;29.50;;;14.25;;
32455;SDS011;18912;43.270;27.942;2024-03-07T11:48:38;33.15;;;13.85;;
32455;SDS011;18912;43.270;27.942;2024-03-07T11:51:06;38.45;;;15.10;;
32455;SDS011;18912;43.270;27.942;2024-03-07T11:53:36;42.15;;;15.88;;
32455;SDS011;18912;43.270;27.942;2024-03-07T11:56:03;43.08;;;16.08;;
32455;SDS011;18912;43.270;27.942;2024-03-07T11:58:37;43.13;;;17.02;;
32455;SDS011;18912;43.270;27.942;2024-03-07T12:01:06;36.53;;;15.13;;
32455;SDS011;18912;43.270;27.942;2024-03-07T12:03:36;34.55;;;16.17;;
32455;SDS011;18912;43.270;27.942;2024-03-07T12:06:02;38.58;;;16.15;;
32455;SDS011;18912;43.270;27.942;2024-03-07T12:08:28;39.50;;;16.00;;
32455;SDS011;18912;43.270;27.942;2024-03-07T12:10:55;35.55;;;12.50;;
32455;SDS011;18912;43.270;27.942;2024-03-07T12:15:48;41.70;;;16.33;;
32455;SDS011;18912;43.270;27.942;2024-03-07T12:18:16;34.30;;;15.40;;
32455;SDS011;18912;43.270;27.942;2024-03-07T12:20:45;38.08;;;14.73;;
32455;SDS011;18912;43.270;27.942;2024-03-07T12:23:22;41.20;;;15.43;;
32455;SDS011;18912;43.270;27.942;2024-03-07T12:26:00;35.38;;;14.68;;
32455;SDS011;18912;43.270;27.942;2024-03-07T12:28:28;40.97;;;15.00;;
32455;SDS011;18912;43.270;27.942;2024-03-07T12:30:58;50.42;;;16.30;;
32455;SDS011;18912;43.270;27.942;2024-03-07T12:33:27;41.28;;;16.33;;
32455;SDS011;18912;43.270;27.942;2024-03-07T12:35:55;41.30;;;16.05;;
32455;SDS011;18912;43.270;27.942;2024-03-07T12:38:31;34.85;;;15.80;;
32455;SDS011;18912;43.270;27.942;2024-03-07T12:41:06;37.97;;;15.25;;
32455;SDS011;18912;43.270;27.942;2024-03-07T12:43:39;36.42;;;15.68;;
32455;SDS011;18912;43.270;27.942;2024-03-07T12:46:07;33.83;;;15.57;;
32455;SDS011;18912;43.270;27.942;2024-03-07T12:48:37;42.47;;;15.95;;
32455;SDS011;18912;43.270;27.942;2024-03-07T12:51:03;37.28;;;15.65;;
32455;SDS011;18912;43.270;27.942;2024-03-07T12:55:56;37.20;;;15.13;;
32455;SDS011;18912;43.270;27.942;2024-03-07T12:58:22;39.58;;;15.98;;
32455;SDS011;18912;43.270;27.942;2024-03-07T13:00:51;34.20;;;16.65;;
32455;SDS011;18912;43.270;27.942;2024-03-07T13:03:17;32.78;;;16.35;;
32455;SDS011;18912;43.270;27.942;2024-03-07T13:05:43;37.77;;;16.37;;
32455;SDS011;18912;43.270;27.942;2024-03-07T13:08:09;38.37;;;15.30;;
32455;SDS011;18912;43.270;27.942;2024-03-07T13:10:41;42.30;;;17.38;;
32455;SDS011;18912;43.270;27.942;2024-03-07T13:13:08;47.95;;;15.68;;
32455;SDS011;18912;43.270;27.942;2024-03-07T13:15:39;43.25;;;15.98;;
32455;SDS011;18912;43.270;27.942;2024-03-07T13:18:07;41.83;;;18.23;;
32455;SDS011;18912;43.270;27.942;2024-03-07T13:20:34;33.88;;;15.73;;
32455;SDS011;18912;43.270;27.942;2024-03-07T13:23:00;43.75;;;17.65;;
32455;SDS011;18912;43.270;27.942;2024-03-07T13:25:26;51.97;;;16.50;;
32455;SDS011;18912;43.270;27.942;2024-03-07T13:28:01;38.20;;;17.40;;
32455;SDS011;18912;43.270;27.942;2024-03-07T13:30:32;39.53;;;17.70;;
32455;SDS011;18912;43.270;27.942;2024-03-07T13:33:01;36.95;;;16.15;;
32455;SDS011;18912;43.270;27.942;2024-03-07T13:35:31;33.95;;;16.73;;
32455;SDS011;18912;43.270;27.942;2024-03-07T13:37:57;34.25;;;15.80;;
32455;SDS011;18912;43.270;27.942;2024-03-07T13:40:23;40.50;;;18.20;;
32455;SDS011;18912;43.270;27.942;2024-03-07T13:42:56;40.67;;;17.42;;
32455;SDS011;18912;43.270;27.942;2024-03-07T13:45:25;42.15;;;17.92;;
32455;SDS011;18912;43.270;27.942;2024-03-07T13:47:56;42.67;;;17.60;;
32455;SDS011;18912;43.270;27.942;2024-03-07T13:50:24;44.25;;;19.40;;
32455;SDS011;18912;43.270;27.942;2024-03-07T13:52:55;38.15;;;18.95;;
32455;SDS011;18912;43.270;27.942;2024-03-07T14:09:38;44.67;;;18.65;;
32455;SDS011;18912;43.270;27.942;2024-03-07T14:17:44;43.22;;;18.70;;
32455;SDS011;18912;43.270;27.942;2024-03-07T14:26:41;40.83;;;17.20;;
32455;SDS011;18912;43.270;27.942;2024-03-07T14:32:13;46.22;;;19.02;;
32455;SDS011;18912;43.270;27.942;2024-03-07T14:35:03;40.22;;;19.27;;
32455;SDS011;18912;43.270;27.942;2024-03-07T14:37:46;40.25;;;20.50;;
32455;SDS011;18912;43.270;27.942;2024-03-07T14:40:17;41.03;;;19.95;;
32455;SDS011;18912;43.270;27.942;2024-03-07T14:42:45;44.55;;;20.75;;
32455;SDS011;18912;43.270;27.942;2024-03-07T14:45:21;47.83;;;20.67;;
32455;SDS011;18912;43.270;27.942;2024-03-07T14:47:52;38.10;;;19.05;;
32455;SDS011;18912;43.270;27.942;2024-03-07T14:50:19;43.42;;;18.92;;
32455;SDS011;18912;43.270;27.942;2024-03-07T14:52:47;42.40;;;19.27;;
32455;SDS011;18912;43.270;27.942;2024-03-07T14:55:13;44.88;;;20.90;;
32455;SDS011;18912;43.270;27.942;2024-03-07T14:57:39;43.78;;;21.08;;
32455;SDS011;18912;43.270;27.942;2024-03-07T15:00:06;45.75;;;20.60;;
32455;SDS011;18912;43.270;27.942;2024-03-07T15:02:44;42.58;;;19.45;;
32455;SDS011;18912;43.270;27.942;2024-03-07T15:05:14;46.20;;;19.58;;
32455;SDS011;18912;43.270;27.942;2024-03-07T15:07:42;43.33;;;18.65;;
32455;SDS011;18912;43.270;27.942;2024-03-07T15:10:14;42.08;;;18.73;;
32455;SDS011;18912;43.270;27.942;2024-03-07T15:12:46;44.60;;;20.13;;
32455;SDS011;18912;43.270;27.942;2024-03-07T15:15:13;46.13;;;19.25;;
32455;SDS011;18912;43.270;27.942;2024-03-07T15:17:41;46.70;;;20.75;;
32455;SDS011;18912;43.270;27.942;2024-03-07T15:20:08;36.97;;;19.05;;
32455;SDS011;18912;43.270;27.942;2024-03-07T15:22:56;46.97;;;20.55;;
32455;SDS011;18912;43.270;27.942;2024-03-07T15:25:24;40.50;;;18.67;;
32455;SDS011;18912;43.270;27.942;2024-03-07T15:27:54;37.22;;;18.90;;
32455;SDS011;18912;43.270;27.942;2024-03-07T15:30:25;49.88;;;20.60;;
32455;SDS011;18912;43.270;27.942;2024-03-07T15:32:57;45.97;;;20.98;;